sensor_id;sensor_type;location;lat;lon;timestamp;temperature;humidity
23160;DHT22;11748;50.844;4.396;2023-04-25T00:01:06;10.30;99.90
23160;DHT22;11748;50.844;4.396;2023-04-25T00:03:34;10.30;99.90
23160;DHT22;11748;50.844;4.396;2023-04-25T00:06:00;10.40;99.90
23160;DHT22;11748;50.844;4.396;2023-04-25T00:08:31;10.50;99.90
23160;DHT22;11748;50.844;4.396;2023-04-25T00:10:58;10.40;99.90
23160;DHT22;11748;50.844;4.396;2023-04-25T00:13:25;10.50;99.90
23160;DHT22;11748;50.844;4.396;2023-04-25T00:15:51;10.50;99.90
23160;DHT22;11748;50.844;4.396;2023-04-25T00:18:19;10.50;99.90
23160;DHT22;11748;50.844;4.396;2023-04-25T00:20:45;10.50;99.90
23160;DHT22;11748;50.844;4.396;2023-04-25T00:23:16;10.50;99.90
23160;DHT22;11748;50.844;4.396;2023-04-25T00:25:48;10.50;99.90
23160;DHT22;11748;50.844;4.396;2023-04-25T00:28:16;10.40;99.90
23160;DHT22;11748;50.844;4.396;2023-04-25T00:30:42;10.50;99.90
23160;DHT22;11748;50.844;4.396;2023-04-25T00:33:09;10.50;99.90
23160;DHT22;11748;50.844;4.396;2023-04-25T00:35:35;10.50;99.90
23160;DHT22;11748;50.844;4.396;2023-04-25T00:38:01;10.40;99.90
23160;DHT22;11748;50.844;4.396;2023-04-25T00:40:28;10.30;99.90
23160;DHT22;11748;50.844;4.396;2023-04-25T00:42:54;10.30;99.90
23160;DHT22;11748;50.844;4.396;2023-04-25T00:45:20;10.30;99.90
23160;DHT22;11748;50.844;4.396;2023-04-25T00:47:46;10.30;99.90
23160;DHT22;11748;50.844;4.396;2023-04-25T00:50:13;10.10;99.90
23160;DHT22;11748;50.844;4.396;2023-04-25T00:52:41;10.10;99.90
23160;DHT22;11748;50.844;4.396;2023-04-25T00:55:10;10.00;99.90
23160;DHT22;11748;50.844;4.396;2023-04-25T00:57:36;10.00;99.90
23160;DHT22;11748;50.844;4.396;2023-04-25T01:00:06;9.90;99.90
23160;DHT22;11748;50.844;4.396;2023-04-25T01:02:36;10.00;99.90
23160;DHT22;11748;50.844;4.396;2023-04-25T01:05:03;10.00;99.90
23160;DHT22;11748;50.844;4.396;2023-04-25T01:07:29;10.00;99.90
23160;DHT22;11748;50.844;4.396;2023-04-25T01:09:55;10.10;99.90
23160;DHT22;11748;50.844;4.396;2023-04-25T01:12:22;10.00;99.90
23160;DHT22;11748;50.844;4.396;2023-04-25T01:14:48;10.00;99.90
23160;DHT22;11748;50.844;4.396;2023-04-25T01:17:14;10.00;99.90
23160;DHT22;11748;50.844;4.396;2023-04-25T01:19:40;10.00;99.90
23160;DHT22;11748;50.844;4.396;2023-04-25T01:22:06;10.00;99.90
23160;DHT22;11748;50.844;4.396;2023-04-25T01:24:32;10.00;99.90
23160;DHT22;11748;50.844;4.396;2023-04-25T01:27:00;10.10;99.90
23160;DHT22;11748;50.844;4.396;2023-04-25T01:29:28;10.20;99.90
23160;DHT22;11748;50.844;4.396;2023-04-25T01:31:54;10.10;99.90
23160;DHT22;11748;50.844;4.396;2023-04-25T01:34:20;10.10;99.90
23160;DHT22;11748;50.844;4.396;2023-04-25T01:36:49;10.00;99.90
23160;DHT22;11748;50.844;4.396;2023-04-25T01:39:16;9.90;99.90
23160;DHT22;11748;50.844;4.396;2023-04-25T01:41:42;9.90;99.90
23160;DHT22;11748;50.844;4.396;2023-04-25T01:44:08;9.90;99.90
23160;DHT22;11748;50.844;4.396;2023-04-25T01:46:35;9.80;99.90
23160;DHT22;11748;50.844;4.396;2023-04-25T01:49:01;9.70;99.90
23160;DHT22;11748;50.844;4.396;2023-04-25T01:51:27;9.80;99.90
23160;DHT22;11748;50.844;4.396;2023-04-25T01:53:52;9.80;99.90
23160;DHT22;11748;50.844;4.396;2023-04-25T01:56:19;9.60;99.90
23160;DHT22;11748;50.844;4.396;2023-04-25T01:58:45;9.70;99.90
23160;DHT22;11748;50.844;4.396;2023-04-25T02:01:11;9.60;99.90
23160;DHT22;11748;50.844;4.396;2023-04-25T02:03:37;9.60;99.90
23160;DHT22;11748;50.844;4.396;2023-04-25T02:06:03;9.60;99.90
23160;DHT22;11748;50.844;4.396;2023-04-25T02:08:28;9.60;99.90
23160;DHT22;11748;50.844;4.396;2023-04-25T02:10:55;9.50;99.90
23160;DHT22;11748;50.844;4.396;2023-04-25T02:13:21;9.50;99.90
23160;DHT22;11748;50.844;4.396;2023-04-25T02:15:47;9.50;99.90
23160;DHT22;11748;50.844;4.396;2023-04-25T02:18:12;9.60;99.90
23160;DHT22;11748;50.844;4.396;2023-04-25T02:20:38;9.70;99.90
23160;DHT22;11748;50.844;4.396;2023-04-25T02:23:04;9.60;99.90
23160;DHT22;11748;50.844;4.396;2023-04-25T02:25:30;9.50;99.90
23160;DHT22;11748;50.844;4.396;2023-04-25T02:27:56;9.60;99.90
23160;DHT22;11748;50.844;4.396;2023-04-25T02:30:22;9.60;99.90
23160;DHT22;11748;50.844;4.396;2023-04-25T02:32:47;9.70;99.90
23160;DHT22;11748;50.844;4.396;2023-04-25T02:35:13;9.80;99.90
23160;DHT22;11748;50.844;4.396;2023-04-25T02:37:39;9.90;99.90
23160;DHT22;11748;50.844;4.396;2023-04-25T02:40:06;9.80;99.90
23160;DHT22;11748;50.844;4.396;2023-04-25T02:42:32;9.80;99.90
23160;DHT22;11748;50.844;4.396;2023-04-25T02:44:58;9.80;99.90
23160;DHT22;11748;50.844;4.396;2023-04-25T02:47:24;9.70;99.90
23160;DHT22;11748;50.844;4.396;2023-04-25T02:49:49;9.50;99.90
23160;DHT22;11748;50.844;4.396;2023-04-25T02:52:15;9.50;99.90
23160;DHT22;11748;50.844;4.396;2023-04-25T02:54:41;9.40;99.90
23160;DHT22;11748;50.844;4.396;2023-04-25T02:57:07;9.40;99.90
23160;DHT22;11748;50.844;4.396;2023-04-25T02:59:33;9.50;99.90
23160;DHT22;11748;50.844;4.396;2023-04-25T03:01:59;9.50;99.90
23160;DHT22;11748;50.844;4.396;2023-04-25T03:04:25;9.40;99.90
23160;DHT22;11748;50.844;4.396;2023-04-25T03:06:51;9.50;99.90
23160;DHT22;11748;50.844;4.396;2023-04-25T03:09:17;9.50;99.90
23160;DHT22;11748;50.844;4.396;2023-04-25T03:11:44;9.50;99.90
23160;DHT22;11748;50.844;4.396;2023-04-25T03:14:10;9.70;99.90
23160;DHT22;11748;50.844;4.396;2023-04-25T03:16:36;9.50;99.90
23160;DHT22;11748;50.844;4.396;2023-04-25T03:19:03;9.50;99.90
23160;DHT22;11748;50.844;4.396;2023-04-25T03:21:30;9.40;99.90
23160;DHT22;11748;50.844;4.396;2023-04-25T03:23:57;9.50;99.90
23160;DHT22;11748;50.844;4.396;2023-04-25T03:26:23;9.40;99.90
23160;DHT22;11748;50.844;4.396;2023-04-25T03:28:49;9.30;99.90
23160;DHT22;11748;50.844;4.396;2023-04-25T03:31:15;9.30;99.90
23160;DHT22;11748;50.844;4.396;2023-04-25T03:33:41;9.10;99.90
23160;DHT22;11748;50.844;4.396;2023-04-25T03:36:07;9.00;99.90
23160;DHT22;11748;50.844;4.396;2023-04-25T03:38:33;9.00;99.90
23160;DHT22;11748;50.844;4.396;2023-04-25T03:40:59;8.90;99.90
23160;DHT22;11748;50.844;4.396;2023-04-25T03:43:24;8.90;99.90
23160;DHT22;11748;50.844;4.396;2023-04-25T03:45:50;9.00;99.90
23160;DHT22;11748;50.844;4.396;2023-04-25T03:48:16;8.90;99.90
23160;DHT22;11748;50.844;4.396;2023-04-25T03:50:42;8.90;99.90
23160;DHT22;11748;50.844;4.396;2023-04-25T03:53:07;8.90;99.90
23160;DHT22;11748;50.844;4.396;2023-04-25T03:55:33;9.00;99.90
23160;DHT22;11748;50.844;4.396;2023-04-25T03:57:59;8.80;99.90
23160;DHT22;11748;50.844;4.396;2023-04-25T04:00:25;8.80;99.90
23160;DHT22;11748;50.844;4.396;2023-04-25T04:02:51;8.70;99.90
23160;DHT22;11748;50.844;4.396;2023-04-25T04:05:17;8.90;99.90
23160;DHT22;11748;50.844;4.396;2023-04-25T04:07:42;8.80;99.90
23160;DHT22;11748;50.844;4.396;2023-04-25T04:10:11;9.00;99.90
23160;DHT22;11748;50.844;4.396;2023-04-25T04:12:38;9.10;99.90
23160;DHT22;11748;50.844;4.396;2023-04-25T04:15:04;9.10;99.90
23160;DHT22;11748;50.844;4.396;2023-04-25T04:17:31;9.10;99.90
23160;DHT22;11748;50.844;4.396;2023-04-25T04:19:57;9.10;99.90
23160;DHT22;11748;50.844;4.396;2023-04-25T04:22:24;9.20;99.90
23160;DHT22;11748;50.844;4.396;2023-04-25T04:24:50;9.20;99.90
23160;DHT22;11748;50.844;4.396;2023-04-25T04:27:18;9.20;99.90
23160;DHT22;11748;50.844;4.396;2023-04-25T04:29:45;9.30;99.90
23160;DHT22;11748;50.844;4.396;2023-04-25T04:32:12;9.30;99.90
23160;DHT22;11748;50.844;4.396;2023-04-25T04:34:38;9.40;99.90
23160;DHT22;11748;50.844;4.396;2023-04-25T04:37:05;9.40;99.90
23160;DHT22;11748;50.844;4.396;2023-04-25T04:39:32;9.60;99.90
23160;DHT22;11748;50.844;4.396;2023-04-25T04:41:58;9.60;99.90
23160;DHT22;11748;50.844;4.396;2023-04-25T04:44:25;9.60;99.90
23160;DHT22;11748;50.844;4.396;2023-04-25T04:46:51;9.50;99.90
23160;DHT22;11748;50.844;4.396;2023-04-25T04:49:17;9.50;99.90
23160;DHT22;11748;50.844;4.396;2023-04-25T04:51:43;9.50;99.90
23160;DHT22;11748;50.844;4.396;2023-04-25T04:54:12;9.60;99.90
23160;DHT22;11748;50.844;4.396;2023-04-25T04:56:38;9.80;99.90
23160;DHT22;11748;50.844;4.396;2023-04-25T04:59:04;9.90;99.90
23160;DHT22;11748;50.844;4.396;2023-04-25T05:01:31;9.90;99.90
23160;DHT22;11748;50.844;4.396;2023-04-25T05:03:57;9.70;99.90
23160;DHT22;11748;50.844;4.396;2023-04-25T05:06:26;9.40;99.90
23160;DHT22;11748;50.844;4.396;2023-04-25T05:08:52;9.20;99.90
23160;DHT22;11748;50.844;4.396;2023-04-25T05:11:19;8.90;99.90
23160;DHT22;11748;50.844;4.396;2023-04-25T05:13:44;8.90;99.90
23160;DHT22;11748;50.844;4.396;2023-04-25T05:16:11;8.90;99.90
23160;DHT22;11748;50.844;4.396;2023-04-25T05:18:37;8.90;99.90
23160;DHT22;11748;50.844;4.396;2023-04-25T05:21:03;8.90;99.90
23160;DHT22;11748;50.844;4.396;2023-04-25T05:23:30;8.90;99.90
23160;DHT22;11748;50.844;4.396;2023-04-25T05:25:56;9.00;99.90
23160;DHT22;11748;50.844;4.396;2023-04-25T05:28:22;9.00;99.90
23160;DHT22;11748;50.844;4.396;2023-04-25T05:30:48;9.10;99.90
23160;DHT22;11748;50.844;4.396;2023-04-25T05:33:14;9.30;99.90
23160;DHT22;11748;50.844;4.396;2023-04-25T05:35:41;9.50;99.90
23160;DHT22;11748;50.844;4.396;2023-04-25T05:38:06;9.40;99.90
23160;DHT22;11748;50.844;4.396;2023-04-25T05:40:32;9.40;99.90
23160;DHT22;11748;50.844;4.396;2023-04-25T05:42:58;9.40;99.90
23160;DHT22;11748;50.844;4.396;2023-04-25T05:45:24;9.60;99.90
23160;DHT22;11748;50.844;4.396;2023-04-25T05:47:49;9.60;99.90
23160;DHT22;11748;50.844;4.396;2023-04-25T05:50:15;9.60;99.90
23160;DHT22;11748;50.844;4.396;2023-04-25T05:52:41;9.60;99.90
23160;DHT22;11748;50.844;4.396;2023-04-25T05:55:07;9.40;99.90
23160;DHT22;11748;50.844;4.396;2023-04-25T05:57:33;9.50;99.90
23160;DHT22;11748;50.844;4.396;2023-04-25T05:59:58;9.70;99.90
23160;DHT22;11748;50.844;4.396;2023-04-25T06:02:24;9.90;99.90
23160;DHT22;11748;50.844;4.396;2023-04-25T06:04:51;9.90;99.90
23160;DHT22;11748;50.844;4.396;2023-04-25T06:07:17;9.70;99.90
23160;DHT22;11748;50.844;4.396;2023-04-25T06:09:43;9.60;99.90
23160;DHT22;11748;50.844;4.396;2023-04-25T06:12:09;9.50;99.90
23160;DHT22;11748;50.844;4.396;2023-04-25T06:14:35;9.50;99.90
23160;DHT22;11748;50.844;4.396;2023-04-25T06:17:02;9.50;99.90
23160;DHT22;11748;50.844;4.396;2023-04-25T06:19:34;9.50;99.90
23160;DHT22;11748;50.844;4.396;2023-04-25T06:22:01;9.60;99.90
23160;DHT22;11748;50.844;4.396;2023-04-25T06:24:27;9.60;99.90
23160;DHT22;11748;50.844;4.396;2023-04-25T06:26:53;9.60;99.90
23160;DHT22;11748;50.844;4.396;2023-04-25T06:29:19;9.50;99.90
23160;DHT22;11748;50.844;4.396;2023-04-25T06:31:44;9.50;99.90
23160;DHT22;11748;50.844;4.396;2023-04-25T06:34:10;9.60;99.90
23160;DHT22;11748;50.844;4.396;2023-04-25T06:36:36;9.70;99.90
23160;DHT22;11748;50.844;4.396;2023-04-25T06:39:02;9.80;99.90
23160;DHT22;11748;50.844;4.396;2023-04-25T06:41:28;9.80;99.90
23160;DHT22;11748;50.844;4.396;2023-04-25T06:43:53;9.80;99.90
23160;DHT22;11748;50.844;4.396;2023-04-25T06:46:19;9.80;99.90
23160;DHT22;11748;50.844;4.396;2023-04-25T06:48:45;9.80;99.90
23160;DHT22;11748;50.844;4.396;2023-04-25T06:51:11;9.90;99.90
23160;DHT22;11748;50.844;4.396;2023-04-25T06:53:39;10.10;99.90
23160;DHT22;11748;50.844;4.396;2023-04-25T06:56:05;10.30;99.90
23160;DHT22;11748;50.844;4.396;2023-04-25T06:58:30;10.20;99.90
23160;DHT22;11748;50.844;4.396;2023-04-25T07:00:56;10.10;99.90
23160;DHT22;11748;50.844;4.396;2023-04-25T07:03:22;10.10;99.90
23160;DHT22;11748;50.844;4.396;2023-04-25T07:05:48;10.10;99.90
23160;DHT22;11748;50.844;4.396;2023-04-25T07:08:13;10.20;99.90
23160;DHT22;11748;50.844;4.396;2023-04-25T07:10:39;10.30;99.90
23160;DHT22;11748;50.844;4.396;2023-04-25T07:13:05;10.30;99.90
23160;DHT22;11748;50.844;4.396;2023-04-25T07:15:31;10.30;99.90
23160;DHT22;11748;50.844;4.396;2023-04-25T07:17:57;10.30;99.90
23160;DHT22;11748;50.844;4.396;2023-04-25T07:20:22;10.30;99.90
23160;DHT22;11748;50.844;4.396;2023-04-25T07:22:48;10.30;99.90
23160;DHT22;11748;50.844;4.396;2023-04-25T07:25:16;10.40;99.90
23160;DHT22;11748;50.844;4.396;2023-04-25T07:27:41;10.50;99.90
23160;DHT22;11748;50.844;4.396;2023-04-25T07:30:08;10.40;99.90
23160;DHT22;11748;50.844;4.396;2023-04-25T07:32:34;10.40;99.90
23160;DHT22;11748;50.844;4.396;2023-04-25T07:35:00;10.40;99.90
23160;DHT22;11748;50.844;4.396;2023-04-25T07:37:27;10.60;99.90
23160;DHT22;11748;50.844;4.396;2023-04-25T07:39:53;10.60;99.90
23160;DHT22;11748;50.844;4.396;2023-04-25T07:42:18;10.70;99.90
23160;DHT22;11748;50.844;4.396;2023-04-25T07:44:44;10.70;99.90
23160;DHT22;11748;50.844;4.396;2023-04-25T07:47:10;10.80;99.90
23160;DHT22;11748;50.844;4.396;2023-04-25T07:49:36;10.80;99.90
23160;DHT22;11748;50.844;4.396;2023-04-25T07:52:03;10.80;99.90
23160;DHT22;11748;50.844;4.396;2023-04-25T07:54:29;10.80;99.90
23160;DHT22;11748;50.844;4.396;2023-04-25T07:56:55;10.80;99.90
23160;DHT22;11748;50.844;4.396;2023-04-25T07:59:21;10.80;99.90
23160;DHT22;11748;50.844;4.396;2023-04-25T08:01:47;10.70;99.90
23160;DHT22;11748;50.844;4.396;2023-04-25T08:04:13;10.70;99.90
23160;DHT22;11748;50.844;4.396;2023-04-25T08:06:39;10.60;99.90
23160;DHT22;11748;50.844;4.396;2023-04-25T08:09:06;10.90;99.90
23160;DHT22;11748;50.844;4.396;2023-04-25T08:11:32;11.00;99.90
23160;DHT22;11748;50.844;4.396;2023-04-25T08:13:57;11.00;99.90
23160;DHT22;11748;50.844;4.396;2023-04-25T08:16:23;11.10;99.90
23160;DHT22;11748;50.844;4.396;2023-04-25T08:18:50;11.10;99.90
23160;DHT22;11748;50.844;4.396;2023-04-25T08:21:16;11.20;99.90
23160;DHT22;11748;50.844;4.396;2023-04-25T08:23:42;11.30;99.90
23160;DHT22;11748;50.844;4.396;2023-04-25T08:26:07;11.40;99.90
23160;DHT22;11748;50.844;4.396;2023-04-25T08:28:33;11.40;99.90
23160;DHT22;11748;50.844;4.396;2023-04-25T08:31:00;11.60;99.90
23160;DHT22;11748;50.844;4.396;2023-04-25T08:33:25;11.50;99.90
23160;DHT22;11748;50.844;4.396;2023-04-25T08:35:51;11.50;99.90
23160;DHT22;11748;50.844;4.396;2023-04-25T08:38:18;11.40;99.90
23160;DHT22;11748;50.844;4.396;2023-04-25T08:40:44;11.30;99.90
23160;DHT22;11748;50.844;4.396;2023-04-25T08:43:13;11.20;99.90
23160;DHT22;11748;50.844;4.396;2023-04-25T08:45:41;11.10;99.90
23160;DHT22;11748;50.844;4.396;2023-04-25T08:48:15;11.10;99.90
23160;DHT22;11748;50.844;4.396;2023-04-25T08:53:15;10.80;99.90
23160;DHT22;11748;50.844;4.396;2023-04-25T08:55:45;10.80;99.90
23160;DHT22;11748;50.844;4.396;2023-04-25T08:58:12;10.90;99.90
23160;DHT22;11748;50.844;4.396;2023-04-25T09:00:38;11.30;99.90
23160;DHT22;11748;50.844;4.396;2023-04-25T09:03:04;11.60;99.90
23160;DHT22;11748;50.844;4.396;2023-04-25T09:05:32;11.70;99.90
23160;DHT22;11748;50.844;4.396;2023-04-25T09:07:57;11.60;99.90
23160;DHT22;11748;50.844;4.396;2023-04-25T09:10:23;11.80;99.90
23160;DHT22;11748;50.844;4.396;2023-04-25T09:13:03;11.90;99.90
23160;DHT22;11748;50.844;4.396;2023-04-25T09:15:31;12.20;99.90
23160;DHT22;11748;50.844;4.396;2023-04-25T09:17:57;12.40;99.90
23160;DHT22;11748;50.844;4.396;2023-04-25T09:20:23;12.20;99.90
23160;DHT22;11748;50.844;4.396;2023-04-25T09:23:04;12.20;99.90
23160;DHT22;11748;50.844;4.396;2023-04-25T09:25:37;11.90;99.90
23160;DHT22;11748;50.844;4.396;2023-04-25T09:28:06;11.60;99.90
23160;DHT22;11748;50.844;4.396;2023-04-25T09:30:34;11.40;99.90
23160;DHT22;11748;50.844;4.396;2023-04-25T09:33:10;11.40;99.90
23160;DHT22;11748;50.844;4.396;2023-04-25T09:35:38;11.40;99.90
23160;DHT22;11748;50.844;4.396;2023-04-25T09:38:22;11.70;99.90
23160;DHT22;11748;50.844;4.396;2023-04-25T09:40:48;11.80;99.90
23160;DHT22;11748;50.844;4.396;2023-04-25T09:43:22;11.60;99.90
23160;DHT22;11748;50.844;4.396;2023-04-25T09:45:50;11.70;99.90
23160;DHT22;11748;50.844;4.396;2023-04-25T09:48:21;11.90;99.90
23160;DHT22;11748;50.844;4.396;2023-04-25T09:51:13;11.90;99.90
23160;DHT22;11748;50.844;4.396;2023-04-25T09:53:43;11.50;99.90
23160;DHT22;11748;50.844;4.396;2023-04-25T09:56:10;11.40;99.90
23160;DHT22;11748;50.844;4.396;2023-04-25T09:58:38;11.60;99.90
23160;DHT22;11748;50.844;4.396;2023-04-25T10:01:07;11.90;99.90
23160;DHT22;11748;50.844;4.396;2023-04-25T10:03:34;11.90;99.90
23160;DHT22;11748;50.844;4.396;2023-04-25T10:06:02;12.00;99.90
23160;DHT22;11748;50.844;4.396;2023-04-25T10:08:33;12.10;99.90
23160;DHT22;11748;50.844;4.396;2023-04-25T10:11:04;12.00;99.90
23160;DHT22;11748;50.844;4.396;2023-04-25T10:13:30;11.80;99.90
23160;DHT22;11748;50.844;4.396;2023-04-25T10:16:00;12.00;99.90
23160;DHT22;11748;50.844;4.396;2023-04-25T10:18:28;12.20;99.90
23160;DHT22;11748;50.844;4.396;2023-04-25T10:20:55;12.20;99.90
23160;DHT22;11748;50.844;4.396;2023-04-25T10:23:21;11.70;99.90
23160;DHT22;11748;50.844;4.396;2023-04-25T10:25:52;11.50;99.90
23160;DHT22;11748;50.844;4.396;2023-04-25T10:28:19;11.50;99.90
23160;DHT22;11748;50.844;4.396;2023-04-25T10:31:04;11.90;99.90
23160;DHT22;11748;50.844;4.396;2023-04-25T10:33:34;12.60;99.90
23160;DHT22;11748;50.844;4.396;2023-04-25T10:36:13;12.70;99.90
23160;DHT22;11748;50.844;4.396;2023-04-25T10:38:41;12.60;99.90
23160;DHT22;11748;50.844;4.396;2023-04-25T10:41:10;12.80;99.90
23160;DHT22;11748;50.844;4.396;2023-04-25T10:43:40;13.00;99.90
23160;DHT22;11748;50.844;4.396;2023-04-25T10:46:17;13.20;99.90
23160;DHT22;11748;50.844;4.396;2023-04-25T10:48:52;13.20;99.90
23160;DHT22;11748;50.844;4.396;2023-04-25T10:51:25;13.30;99.90
23160;DHT22;11748;50.844;4.396;2023-04-25T10:54:05;13.20;99.90
23160;DHT22;11748;50.844;4.396;2023-04-25T10:56:32;12.80;99.90
23160;DHT22;11748;50.844;4.396;2023-04-25T10:59:19;13.00;99.90
23160;DHT22;11748;50.844;4.396;2023-04-25T11:01:52;13.20;99.90
23160;DHT22;11748;50.844;4.396;2023-04-25T11:04:31;13.50;99.90
23160;DHT22;11748;50.844;4.396;2023-04-25T11:07:38;13.50;99.90
23160;DHT22;11748;50.844;4.396;2023-04-25T11:10:07;13.00;99.90
23160;DHT22;11748;50.844;4.396;2023-04-25T11:12:33;12.70;99.90
23160;DHT22;11748;50.844;4.396;2023-04-25T11:15:04;12.30;99.90
23160;DHT22;11748;50.844;4.396;2023-04-25T11:17:30;12.00;99.90
23160;DHT22;11748;50.844;4.396;2023-04-25T11:19:56;12.10;99.90
23160;DHT22;11748;50.844;4.396;2023-04-25T11:22:22;12.20;99.90
23160;DHT22;11748;50.844;4.396;2023-04-25T11:24:48;12.20;99.90
23160;DHT22;11748;50.844;4.396;2023-04-25T11:27:14;12.30;99.90
23160;DHT22;11748;50.844;4.396;2023-04-25T11:29:40;12.40;99.90
23160;DHT22;11748;50.844;4.396;2023-04-25T11:32:06;12.40;99.90
23160;DHT22;11748;50.844;4.396;2023-04-25T11:34:33;12.60;99.90
23160;DHT22;11748;50.844;4.396;2023-04-25T11:37:00;12.90;99.90
23160;DHT22;11748;50.844;4.396;2023-04-25T11:39:27;12.90;99.90
23160;DHT22;11748;50.844;4.396;2023-04-25T11:41:54;12.70;99.90
23160;DHT22;11748;50.844;4.396;2023-04-25T11:44:20;12.80;99.90
23160;DHT22;11748;50.844;4.396;2023-04-25T11:46:47;12.80;99.90
23160;DHT22;11748;50.844;4.396;2023-04-25T11:49:14;12.80;99.90
23160;DHT22;11748;50.844;4.396;2023-04-25T11:51:46;12.80;99.90
23160;DHT22;11748;50.844;4.396;2023-04-25T11:54:12;12.70;99.90
23160;DHT22;11748;50.844;4.396;2023-04-25T11:56:42;12.70;99.90
23160;DHT22;11748;50.844;4.396;2023-04-25T11:59:08;12.90;99.90
23160;DHT22;11748;50.844;4.396;2023-04-25T12:01:35;12.90;99.90
23160;DHT22;11748;50.844;4.396;2023-04-25T12:06:41;13.20;99.90
23160;DHT22;11748;50.844;4.396;2023-04-25T12:09:09;13.30;99.90
23160;DHT22;11748;50.844;4.396;2023-04-25T12:11:43;13.50;99.90
23160;DHT22;11748;50.844;4.396;2023-04-25T12:14:09;13.60;99.90
23160;DHT22;11748;50.844;4.396;2023-04-25T12:16:43;13.60;99.90
23160;DHT22;11748;50.844;4.396;2023-04-25T12:19:09;13.60;99.90
23160;DHT22;11748;50.844;4.396;2023-04-25T12:21:35;13.50;99.90
23160;DHT22;11748;50.844;4.396;2023-04-25T12:24:33;13.50;99.90
23160;DHT22;11748;50.844;4.396;2023-04-25T12:27:01;13.50;99.80
23160;DHT22;11748;50.844;4.396;2023-04-25T12:29:29;13.60;98.90
23160;DHT22;11748;50.844;4.396;2023-04-25T12:31:55;13.40;99.70
23160;DHT22;11748;50.844;4.396;2023-04-25T12:34:22;13.50;99.90
23160;DHT22;11748;50.844;4.396;2023-04-25T12:36:49;13.60;99.90
23160;DHT22;11748;50.844;4.396;2023-04-25T12:39:22;13.30;99.60
23160;DHT22;11748;50.844;4.396;2023-04-25T12:41:49;13.10;99.00
23160;DHT22;11748;50.844;4.396;2023-04-25T12:44:15;12.80;98.90
23160;DHT22;11748;50.844;4.396;2023-04-25T12:46:41;13.00;98.60
23160;DHT22;11748;50.844;4.396;2023-04-25T12:49:07;13.20;98.50
23160;DHT22;11748;50.844;4.396;2023-04-25T12:51:34;13.80;98.30
23160;DHT22;11748;50.844;4.396;2023-04-25T12:54:01;14.10;98.00
23160;DHT22;11748;50.844;4.396;2023-04-25T12:56:28;14.30;98.10
23160;DHT22;11748;50.844;4.396;2023-04-25T12:58:54;14.10;98.20
23160;DHT22;11748;50.844;4.396;2023-04-25T13:01:21;13.90;98.10
23160;DHT22;11748;50.844;4.396;2023-04-25T13:03:47;13.80;98.20
23160;DHT22;11748;50.844;4.396;2023-04-25T13:06:14;13.80;98.50
23160;DHT22;11748;50.844;4.396;2023-04-25T13:08:40;14.10;99.00
23160;DHT22;11748;50.844;4.396;2023-04-25T13:11:07;13.90;99.90
23160;DHT22;11748;50.844;4.396;2023-04-25T13:13:33;14.00;99.90
23160;DHT22;11748;50.844;4.396;2023-04-25T13:16:03;14.20;99.90
23160;DHT22;11748;50.844;4.396;2023-04-25T13:18:30;13.90;98.80
23160;DHT22;11748;50.844;4.396;2023-04-25T13:20:56;13.50;98.90
23160;DHT22;11748;50.844;4.396;2023-04-25T13:23:22;13.50;99.00
23160;DHT22;11748;50.844;4.396;2023-04-25T13:25:48;13.30;99.40
23160;DHT22;11748;50.844;4.396;2023-04-25T13:28:14;13.60;99.30
23160;DHT22;11748;50.844;4.396;2023-04-25T13:30:42;13.70;99.20
23160;DHT22;11748;50.844;4.396;2023-04-25T13:33:07;13.90;99.10
23160;DHT22;11748;50.844;4.396;2023-04-25T13:35:34;14.10;98.50
23160;DHT22;11748;50.844;4.396;2023-04-25T13:38:00;14.30;97.80
23160;DHT22;11748;50.844;4.396;2023-04-25T13:40:27;14.40;97.70
23160;DHT22;11748;50.844;4.396;2023-04-25T13:42:53;14.60;97.50
23160;DHT22;11748;50.844;4.396;2023-04-25T13:45:19;15.00;97.20
23160;DHT22;11748;50.844;4.396;2023-04-25T13:47:46;15.10;96.40
23160;DHT22;11748;50.844;4.396;2023-04-25T13:50:12;14.90;95.20
23160;DHT22;11748;50.844;4.396;2023-04-25T13:52:39;14.90;94.20
23160;DHT22;11748;50.844;4.396;2023-04-25T13:55:05;14.60;94.60
23160;DHT22;11748;50.844;4.396;2023-04-25T13:57:33;14.50;95.40
23160;DHT22;11748;50.844;4.396;2023-04-25T13:59:59;14.00;97.60
23160;DHT22;11748;50.844;4.396;2023-04-25T14:02:29;13.70;98.50
23160;DHT22;11748;50.844;4.396;2023-04-25T14:04:55;13.30;99.10
23160;DHT22;11748;50.844;4.396;2023-04-25T14:07:21;13.10;99.60
23160;DHT22;11748;50.844;4.396;2023-04-25T14:09:46;13.00;99.90
23160;DHT22;11748;50.844;4.396;2023-04-25T14:12:12;13.00;99.90
23160;DHT22;11748;50.844;4.396;2023-04-25T14:14:38;13.00;99.90
23160;DHT22;11748;50.844;4.396;2023-04-25T14:17:04;13.00;99.60
23160;DHT22;11748;50.844;4.396;2023-04-25T14:19:30;12.80;98.90
23160;DHT22;11748;50.844;4.396;2023-04-25T14:21:56;12.90;98.50
23160;DHT22;11748;50.844;4.396;2023-04-25T14:24:22;12.80;98.60
23160;DHT22;11748;50.844;4.396;2023-04-25T14:26:47;12.80;98.10
23160;DHT22;11748;50.844;4.396;2023-04-25T14:29:13;12.70;98.10
23160;DHT22;11748;50.844;4.396;2023-04-25T14:31:39;12.80;97.90
23160;DHT22;11748;50.844;4.396;2023-04-25T14:34:06;12.90;97.40
23160;DHT22;11748;50.844;4.396;2023-04-25T14:36:32;12.80;96.90
23160;DHT22;11748;50.844;4.396;2023-04-25T14:38:59;12.60;96.30
23160;DHT22;11748;50.844;4.396;2023-04-25T14:41:25;12.80;96.60
23160;DHT22;11748;50.844;4.396;2023-04-25T14:43:52;12.80;96.60
23160;DHT22;11748;50.844;4.396;2023-04-25T14:46:19;12.90;96.40
23160;DHT22;11748;50.844;4.396;2023-04-25T14:48:45;12.90;96.20
23160;DHT22;11748;50.844;4.396;2023-04-25T14:51:11;13.00;96.50
23160;DHT22;11748;50.844;4.396;2023-04-25T14:53:37;13.40;96.80
23160;DHT22;11748;50.844;4.396;2023-04-25T14:56:03;13.70;97.20
23160;DHT22;11748;50.844;4.396;2023-04-25T14:58:30;13.60;98.20
23160;DHT22;11748;50.844;4.396;2023-04-25T15:00:56;13.80;97.10
23160;DHT22;11748;50.844;4.396;2023-04-25T15:03:22;13.80;97.30
23160;DHT22;11748;50.844;4.396;2023-04-25T15:05:48;13.70;96.70
23160;DHT22;11748;50.844;4.396;2023-04-25T15:08:14;13.60;96.30
23160;DHT22;11748;50.844;4.396;2023-04-25T15:10:40;13.50;95.80
23160;DHT22;11748;50.844;4.396;2023-04-25T15:13:06;13.40;96.10
23160;DHT22;11748;50.844;4.396;2023-04-25T15:15:31;13.30;96.60
23160;DHT22;11748;50.844;4.396;2023-04-25T15:17:57;13.20;96.90
23160;DHT22;11748;50.844;4.396;2023-04-25T15:20:23;13.10;97.00
23160;DHT22;11748;50.844;4.396;2023-04-25T15:22:50;13.00;97.20
23160;DHT22;11748;50.844;4.396;2023-04-25T15:25:16;13.10;97.20
23160;DHT22;11748;50.844;4.396;2023-04-25T15:27:45;13.30;97.30
23160;DHT22;11748;50.844;4.396;2023-04-25T15:30:15;13.50;97.10
23160;DHT22;11748;50.844;4.396;2023-04-25T15:32:45;13.50;96.70
23160;DHT22;11748;50.844;4.396;2023-04-25T15:35:11;13.30;96.10
23160;DHT22;11748;50.844;4.396;2023-04-25T15:37:37;13.20;96.10
23160;DHT22;11748;50.844;4.396;2023-04-25T15:40:09;13.10;96.00